Terminal Aerodrome Forecast
Issued by NWS

Home | Current Version | Previous Version | Text Only | Print | Product List | Glossary On
Versions: 1 2 3 4 5 6 7 8 9 10 11 12
000
FTUS45 KGJT 140304 AAA
TAFASE
TAF AMD
KASE 140304Z 1403/1424 25005KT P6SM VCSH BKN060 OVC090
     FM140600 00000KT 2SM -SN BKN025 OVC040
     FM141600 35005KT 3SM -SHSN BKN030 OVC060
     FM141800 35006KT P6SM FEW045 SCT140=

USA.gov is the U.S. government's official web portal to all federal, state and local government web resources and services.